Exning, United Kingdom
Current Conditions -  °F | °C
As of 8:58 PM on Tuesday 25 Nov 2014 (Local Time) from EGUN Reporting Station
Overcast Overcast  
Wind Chill:   Ceiling: 6000
Heat Index:   Visibility: 6mi
Dew Point:   Wind: 8mph
Humidity: 90%   Direction: 60°ENE
Pressure: 30.06"   Gusts: NA
Location:  52.27°N, 0.37°E
Report Text: EGUN 252058Z AUTO 06007KT 9999 OVC060 08/06 A3006 RMK AO2 RAB2010E2020DZB2005E2010 SLP183 T00770062 57016
Loading
Personal Weather Stations






























Interactive Weather Map New forecast layout! Learn more

10-Day Weather Forecast

Advertisements
Track Severe Weather on mobile